createdAt,value
2023-05-14T00:02:12.006Z,66.30
2023-05-14T00:04:38.546Z,66.30
2023-05-14T00:07:05.031Z,66.40
2023-05-14T00:09:31.512Z,66.30
2023-05-14T00:11:57.971Z,66.30
2023-05-14T00:14:24.438Z,66.30
2023-05-14T00:16:50.975Z,66.40
2023-05-14T00:19:17.947Z,66.40
2023-05-14T00:21:44.481Z,66.40
2023-05-14T00:24:10.951Z,66.20
2023-05-14T00:26:37.438Z,66.30
2023-05-14T00:29:03.910Z,66.10
2023-05-14T00:31:30.518Z,66.20
2023-05-14T00:33:57.040Z,66.30
2023-05-14T00:36:23.522Z,66.20
2023-05-14T00:38:50.024Z,66.30
2023-05-14T00:41:16.494Z,66.20
2023-05-14T00:43:42.984Z,66.20
2023-05-14T00:46:09.478Z,66.10
2023-05-14T00:48:36.001Z,66.10
2023-05-14T00:51:02.512Z,66.10
2023-05-14T00:53:29.018Z,66.10
2023-05-14T00:55:55.490Z,66.00
2023-05-14T00:58:21.974Z,66.10
2023-05-14T01:00:48.488Z,65.80
2023-05-14T01:03:15.088Z,65.90
2023-05-14T01:05:41.643Z,65.90
2023-05-14T01:08:08.117Z,65.90
2023-05-14T01:10:34.584Z,65.80
2023-05-14T01:13:01.067Z,65.80
2023-05-14T01:15:27.614Z,65.70
2023-05-14T01:17:54.156Z,65.80
2023-05-14T01:20:20.694Z,65.80
2023-05-14T01:22:47.169Z,65.80
2023-05-14T01:25:13.659Z,65.90
2023-05-14T01:27:40.136Z,65.80
2023-05-14T01:30:06.654Z,65.80
2023-05-14T01:32:33.174Z,65.80
2023-05-14T01:34:59.695Z,65.80
2023-05-14T01:37:26.182Z,65.80
2023-05-14T01:39:52.675Z,65.80
2023-05-14T01:42:19.158Z,65.80
2023-05-14T01:44:45.629Z,65.80
2023-05-14T01:47:12.098Z,65.80
2023-05-14T01:49:38.589Z,65.60
2023-05-14T01:52:05.083Z,65.70
2023-05-14T01:54:31.575Z,65.80
2023-05-14T01:56:58.060Z,65.70
2023-05-14T01:59:24.550Z,65.70
2023-05-14T02:01:51.069Z,65.70
2023-05-14T02:04:17.701Z,65.80
2023-05-14T02:06:44.228Z,65.70
2023-05-14T02:09:10.714Z,65.60
2023-05-14T02:11:37.182Z,65.70
2023-05-14T02:14:03.673Z,65.60
2023-05-14T02:16:30.225Z,65.60
2023-05-14T02:18:56.765Z,65.40
2023-05-14T02:21:23.290Z,65.50
2023-05-14T02:23:49.767Z,65.50
2023-05-14T02:26:16.254Z,65.40
2023-05-14T02:28:42.745Z,66.00
2023-05-14T02:31:09.275Z,65.40
2023-05-14T02:33:35.859Z,65.30
2023-05-14T02:36:02.449Z,65.30
2023-05-14T02:38:28.918Z,65.30
2023-05-14T02:40:55.406Z,65.20
2023-05-14T02:43:21.880Z,65.20
2023-05-14T02:45:48.414Z,65.10
2023-05-14T02:48:14.914Z,65.10
2023-05-14T02:50:41.400Z,65.20
2023-05-14T02:53:07.851Z,65.00
2023-05-14T02:55:34.339Z,65.10
2023-05-14T02:58:00.812Z,65.00
2023-05-14T03:00:28.454Z,65.00
2023-05-14T03:02:55.381Z,65.00
2023-05-14T03:05:22.314Z,64.90
2023-05-14T03:07:48.812Z,64.90
2023-05-14T03:10:15.287Z,65.00
2023-05-14T03:12:41.863Z,65.10
2023-05-14T03:15:08.353Z,65.00
2023-05-14T03:17:34.898Z,64.90
2023-05-14T03:20:01.396Z,65.00
2023-05-14T03:22:27.870Z,64.90
2023-05-14T03:24:54.353Z,64.90
2023-05-14T03:27:20.837Z,64.90
2023-05-14T03:29:47.323Z,64.80
2023-05-14T03:32:13.816Z,64.70
2023-05-14T03:34:40.293Z,64.70
2023-05-14T03:37:06.782Z,64.70
2023-05-14T03:39:33.267Z,64.80
2023-05-14T03:42:04.492Z,64.70
2023-05-14T03:44:30.970Z,64.70
2023-05-14T03:46:57.451Z,64.70
2023-05-14T03:49:23.938Z,64.60
2023-05-14T03:51:50.425Z,64.60
2023-05-14T03:54:16.905Z,64.60
2023-05-14T03:56:43.395Z,64.50
2023-05-14T03:59:09.885Z,64.60
2023-05-14T04:01:36.351Z,64.60
2023-05-14T04:04:03.113Z,64.70
2023-05-14T04:06:29.667Z,64.70
2023-05-14T04:08:56.172Z,64.60
2023-05-14T04:11:22.654Z,64.40
2023-05-14T04:13:49.156Z,64.40
2023-05-14T04:16:15.666Z,64.50
2023-05-14T04:18:42.227Z,64.40
2023-05-14T04:21:08.738Z,64.40
2023-05-14T04:23:35.224Z,64.20
2023-05-14T04:26:01.673Z,64.10
2023-05-14T04:28:28.157Z,64.40
2023-05-14T04:30:54.646Z,64.30
2023-05-14T04:33:21.129Z,64.20
2023-05-14T04:35:47.625Z,64.20
2023-05-14T04:38:14.110Z,64.00
2023-05-14T04:40:40.622Z,64.00
2023-05-14T04:43:07.122Z,64.00
2023-05-14T04:45:34.554Z,64.00
2023-05-14T04:48:01.181Z,64.10
2023-05-14T04:50:27.726Z,63.70
2023-05-14T04:52:54.219Z,63.50
2023-05-14T04:55:20.694Z,63.40
2023-05-14T04:57:47.162Z,63.50
2023-05-14T05:00:13.647Z,63.50
2023-05-14T05:02:40.120Z,63.50
2023-05-14T05:05:06.656Z,63.40
2023-05-14T05:07:33.157Z,63.50
2023-05-14T05:09:59.663Z,63.20
2023-05-14T05:12:26.150Z,63.30
2023-05-14T05:14:52.660Z,63.50
2023-05-14T05:17:19.192Z,63.40
2023-05-14T05:19:45.760Z,63.30
2023-05-14T05:22:12.263Z,63.30
2023-05-14T05:24:38.783Z,63.10
2023-05-14T05:27:05.300Z,63.30
2023-05-14T05:29:31.801Z,63.30
2023-05-14T05:31:58.350Z,63.40
2023-05-14T05:34:24.847Z,63.30
2023-05-14T05:36:51.333Z,63.40
2023-05-14T05:39:17.818Z,63.30
2023-05-14T05:41:44.289Z,63.30
2023-05-14T05:44:10.770Z,63.30
2023-05-14T05:46:37.273Z,63.30
2023-05-14T05:49:03.793Z,63.30
2023-05-14T05:51:30.269Z,63.20
2023-05-14T05:53:58.621Z,63.10
2023-05-14T05:56:25.090Z,63.20
2023-05-14T05:58:51.585Z,63.30
2023-05-14T06:01:18.056Z,63.20
2023-05-14T06:03:46.920Z,63.10
2023-05-14T06:06:14.791Z,63.00
2023-05-14T06:08:41.278Z,63.20
2023-05-14T06:11:07.740Z,63.20
2023-05-14T06:13:34.224Z,63.30
2023-05-14T06:16:04.663Z,63.30
2023-05-14T06:18:31.214Z,63.30
2023-05-14T06:20:57.708Z,63.20
2023-05-14T06:23:24.200Z,63.30
2023-05-14T06:25:50.892Z,63.20
2023-05-14T06:28:22.838Z,63.20
2023-05-14T06:30:49.349Z,63.20
2023-05-14T06:33:15.846Z,63.30
2023-05-14T06:35:42.339Z,63.30
2023-05-14T06:38:08.820Z,63.40
2023-05-14T06:40:35.311Z,63.30
2023-05-14T06:43:01.788Z,63.10
2023-05-14T06:45:28.270Z,63.30
2023-05-14T06:47:54.784Z,63.30
2023-05-14T06:50:21.466Z,63.20
2023-05-14T06:52:48.216Z,63.10
2023-05-14T06:55:14.695Z,63.00
2023-05-14T06:57:41.193Z,63.00
2023-05-14T07:00:07.694Z,62.90
2023-05-14T07:02:34.274Z,63.00
2023-05-14T07:05:00.799Z,63.00
2023-05-14T07:07:27.284Z,63.10
2023-05-14T07:09:53.766Z,63.10
2023-05-14T07:12:20.263Z,63.00
2023-05-14T07:14:46.802Z,63.00
2023-05-14T07:17:13.319Z,63.00
2023-05-14T07:19:39.802Z,63.00
2023-05-14T07:22:06.299Z,63.10
2023-05-14T07:24:32.780Z,63.00
2023-05-14T07:26:59.304Z,63.00
2023-05-14T07:29:25.785Z,63.00
2023-05-14T07:31:52.349Z,63.10
2023-05-14T07:34:18.958Z,63.10
2023-05-14T07:36:45.451Z,63.30
2023-05-14T07:39:11.944Z,63.20
2023-05-14T07:41:38.441Z,63.30
2023-05-14T07:44:04.929Z,63.40
2023-05-14T07:46:31.433Z,63.50
2023-05-14T07:48:57.918Z,63.50
2023-05-14T07:51:24.416Z,63.50
2023-05-14T07:53:50.896Z,63.60
2023-05-14T07:56:17.383Z,63.60
2023-05-14T07:58:43.849Z,63.80
2023-05-14T08:01:10.336Z,63.80
2023-05-14T08:03:36.875Z,63.80
2023-05-14T08:06:03.507Z,64.00
2023-05-14T08:08:29.990Z,64.00
2023-05-14T08:10:56.538Z,64.00
2023-05-14T08:13:23.046Z,64.00
2023-05-14T08:15:49.535Z,64.00
2023-05-14T08:18:16.042Z,64.00
2023-05-14T08:20:42.544Z,64.10
2023-05-14T08:23:09.045Z,64.00
2023-05-14T08:25:35.526Z,64.00
2023-05-14T08:28:02.026Z,64.00
2023-05-14T08:30:28.643Z,64.00
2023-05-14T08:32:55.238Z,64.00
2023-05-14T08:35:21.770Z,63.90
2023-05-14T08:37:48.270Z,63.90
2023-05-14T08:40:14.808Z,64.00
2023-05-14T08:42:41.299Z,64.80
2023-05-14T08:45:07.790Z,64.00
2023-05-14T08:47:34.322Z,63.90
2023-05-14T08:50:00.855Z,64.10
2023-05-14T08:52:27.319Z,64.00
2023-05-14T08:54:53.785Z,64.20
2023-05-14T08:57:20.269Z,64.10
2023-05-14T08:59:46.764Z,64.20
2023-05-14T09:02:13.289Z,64.10
2023-05-14T09:04:39.804Z,64.20
2023-05-14T09:07:06.276Z,64.30
2023-05-14T09:09:32.755Z,64.20
2023-05-14T09:11:59.234Z,64.30
2023-05-14T09:14:25.752Z,64.30
2023-05-14T09:16:53.039Z,64.40
2023-05-14T09:19:19.867Z,64.60
2023-05-14T09:21:46.410Z,64.60
2023-05-14T09:24:12.894Z,64.70
2023-05-14T09:26:39.366Z,64.70
2023-05-14T09:29:05.891Z,64.80
2023-05-14T09:31:32.477Z,64.80
2023-05-14T09:33:59.049Z,64.90
2023-05-14T09:36:25.525Z,64.90
2023-05-14T09:38:52.002Z,64.80
2023-05-14T09:41:18.485Z,64.70
2023-05-14T09:43:44.994Z,64.70
2023-05-14T09:46:11.469Z,64.60
2023-05-14T09:48:38.034Z,64.50
2023-05-14T09:51:04.907Z,64.50
2023-05-14T09:53:31.504Z,64.30
2023-05-14T09:55:57.971Z,64.40
2023-05-14T09:58:24.483Z,64.40
2023-05-14T10:00:51.004Z,64.40
2023-05-14T10:03:19.951Z,64.40
2023-05-14T10:05:46.670Z,64.40
2023-05-14T10:08:13.111Z,64.40
2023-05-14T10:10:39.620Z,64.40
2023-05-14T10:13:06.110Z,64.50
2023-05-14T10:15:32.622Z,64.40
2023-05-14T10:17:59.136Z,64.50
2023-05-14T10:20:26.027Z,64.40
2023-05-14T10:22:52.713Z,64.50
2023-05-14T10:25:19.198Z,64.50
2023-05-14T10:27:45.686Z,64.40
2023-05-14T10:30:12.303Z,64.50
2023-05-14T10:32:38.837Z,64.50
2023-05-14T10:35:05.378Z,64.50
2023-05-14T10:37:31.843Z,64.50
2023-05-14T10:39:58.306Z,64.50
2023-05-14T10:42:24.831Z,64.60
2023-05-14T10:44:51.314Z,64.50
2023-05-14T10:47:17.818Z,64.50
2023-05-14T10:49:44.312Z,64.50
2023-05-14T10:52:10.802Z,64.50
2023-05-14T10:54:40.864Z,64.50
2023-05-14T10:57:07.347Z,64.50
2023-05-14T10:59:33.824Z,64.60
2023-05-14T11:02:00.368Z,64.60
2023-05-14T11:04:26.898Z,64.50
2023-05-14T11:06:53.397Z,64.60
2023-05-14T11:09:19.891Z,64.70
2023-05-14T11:11:46.369Z,64.60
2023-05-14T11:14:12.844Z,64.50
2023-05-14T11:16:39.356Z,64.60
2023-05-14T11:19:05.912Z,64.70
2023-05-14T11:21:32.501Z,64.60
2023-05-14T11:23:59.157Z,64.70
2023-05-14T11:26:25.720Z,64.70
2023-05-14T11:28:52.258Z,64.80
2023-05-14T11:31:18.761Z,64.70
2023-05-14T11:33:45.257Z,64.70
2023-05-14T11:36:11.761Z,64.70
2023-05-14T11:38:38.221Z,64.70
2023-05-14T11:41:04.728Z,64.80
2023-05-14T11:43:31.218Z,64.70
2023-05-14T11:45:57.803Z,64.80
2023-05-14T11:48:24.360Z,64.80
2023-05-14T11:50:50.843Z,64.80
2023-05-14T11:53:17.321Z,64.90
2023-05-14T11:55:43.802Z,64.90
2023-05-14T11:58:10.351Z,64.90
2023-05-14T12:00:36.845Z,64.90
2023-05-14T12:03:03.461Z,64.90
2023-05-14T12:05:29.991Z,64.90
2023-05-14T12:07:56.464Z,64.90
2023-05-14T12:10:23.132Z,64.90
2023-05-14T12:12:49.711Z,64.90
2023-05-14T12:15:16.211Z,64.90
2023-05-14T12:17:42.757Z,65.00
2023-05-14T12:20:09.268Z,64.90
2023-05-14T12:22:37.088Z,64.90
2023-05-14T12:25:03.696Z,64.90
2023-05-14T12:27:30.203Z,65.00
2023-05-14T12:29:57.608Z,65.00
2023-05-14T12:32:25.248Z,65.00
2023-05-14T12:34:51.742Z,65.00
2023-05-14T12:37:18.220Z,64.90
2023-05-14T12:39:44.742Z,64.90
2023-05-14T12:42:11.216Z,64.90
2023-05-14T12:44:37.700Z,64.90
2023-05-14T12:47:04.213Z,64.80
2023-05-14T12:49:30.706Z,64.70
2023-05-14T12:52:13.164Z,64.70
2023-05-14T12:54:43.684Z,64.70
2023-05-14T12:57:10.235Z,64.70
2023-05-14T12:59:36.731Z,64.80
2023-05-14T13:02:03.211Z,64.70
2023-05-14T13:04:29.772Z,64.80
2023-05-14T13:06:56.298Z,64.70
2023-05-14T13:09:22.789Z,64.70
2023-05-14T13:11:49.262Z,64.70
2023-05-14T13:14:15.757Z,64.70
2023-05-14T13:16:42.277Z,64.70
2023-05-14T13:19:08.833Z,64.60
2023-05-14T13:21:35.362Z,64.50
2023-05-14T13:24:01.886Z,64.40
2023-05-14T13:26:28.373Z,64.40
2023-05-14T13:28:54.878Z,64.40
2023-05-14T13:31:21.416Z,64.30
2023-05-14T13:33:47.932Z,64.30
2023-05-14T13:36:14.421Z,64.30
2023-05-14T13:38:40.923Z,64.30
2023-05-14T13:41:07.402Z,64.40
2023-05-14T13:43:33.912Z,64.20
2023-05-14T13:46:00.436Z,64.30
2023-05-14T13:48:26.927Z,64.30
2023-05-14T13:50:53.407Z,64.40
2023-05-14T13:53:19.875Z,64.20
2023-05-14T13:55:47.899Z,64.20
2023-05-14T13:58:15.800Z,64.20
2023-05-14T14:00:42.291Z,64.20
2023-05-14T14:03:08.816Z,64.20
2023-05-14T14:05:35.431Z,64.90
2023-05-14T14:08:22.057Z,64.20
2023-05-14T14:10:50.190Z,64.20
2023-05-14T14:13:16.769Z,64.10
2023-05-14T14:15:43.309Z,64.10
2023-05-14T14:18:09.828Z,64.10
2023-05-14T14:20:36.342Z,64.10
2023-05-14T14:23:02.795Z,64.10
2023-05-14T14:25:29.299Z,64.00
2023-05-14T14:27:55.776Z,64.00
2023-05-14T14:30:22.287Z,63.90
2023-05-14T14:32:48.792Z,63.90
2023-05-14T14:35:15.409Z,63.80
2023-05-14T14:37:41.919Z,63.80
2023-05-14T14:40:08.437Z,63.70
2023-05-14T14:42:34.906Z,63.60
2023-05-14T14:45:01.400Z,63.50
2023-05-14T14:47:27.929Z,63.50
2023-05-14T14:49:54.458Z,63.60
2023-05-14T14:52:20.959Z,63.30
2023-05-14T14:54:47.441Z,63.30
2023-05-14T14:57:13.908Z,63.20
2023-05-14T14:59:40.399Z,63.30
2023-05-14T15:02:06.960Z,63.30
2023-05-14T15:04:33.516Z,63.30
2023-05-14T15:06:59.994Z,63.30
2023-05-14T15:09:26.503Z,63.40
2023-05-14T15:11:53.001Z,63.20
2023-05-14T15:14:19.531Z,63.40
2023-05-14T15:16:46.772Z,63.50
2023-05-14T15:19:14.764Z,63.50
2023-05-14T15:21:41.308Z,63.50
2023-05-14T15:24:07.797Z,63.50
2023-05-14T15:26:34.298Z,64.00
2023-05-14T15:29:00.783Z,63.30
2023-05-14T15:31:27.319Z,63.20
2023-05-14T15:33:53.838Z,63.40
2023-05-14T15:36:20.313Z,63.40
2023-05-14T15:38:46.776Z,63.50
2023-05-14T15:41:13.273Z,63.40
2023-05-14T15:43:39.745Z,63.50
2023-05-14T15:46:06.238Z,63.60
2023-05-14T15:48:32.747Z,63.50
2023-05-14T15:50:59.242Z,63.50
2023-05-14T15:53:25.723Z,63.30
2023-05-14T15:55:52.234Z,63.30
2023-05-14T15:58:18.691Z,63.20
2023-05-14T16:00:45.197Z,63.20
2023-05-14T16:03:11.757Z,63.10
2023-05-14T16:05:38.297Z,63.20
2023-05-14T16:08:04.753Z,63.30
2023-05-14T16:10:31.268Z,63.30
2023-05-14T16:12:57.784Z,63.40
2023-05-14T16:15:24.296Z,63.40
2023-05-14T16:17:53.168Z,63.50
2023-05-14T16:20:19.665Z,63.40
2023-05-14T16:22:46.192Z,63.50
2023-05-14T16:25:12.667Z,63.50
2023-05-14T16:27:39.156Z,63.60
2023-05-14T16:30:05.673Z,63.40
2023-05-14T16:32:32.193Z,63.50
2023-05-14T16:34:58.677Z,63.40
2023-05-14T16:37:25.191Z,63.40
2023-05-14T16:39:51.667Z,63.50
2023-05-14T16:42:18.183Z,63.50
2023-05-14T16:44:44.666Z,63.50
2023-05-14T16:47:11.182Z,63.50
2023-05-14T16:49:37.707Z,63.40
2023-05-14T16:52:04.195Z,63.40
2023-05-14T16:54:30.678Z,63.40
2023-05-14T16:56:57.173Z,63.40
2023-05-14T16:59:23.677Z,63.40
2023-05-14T17:01:50.223Z,63.40
2023-05-14T17:04:16.800Z,63.30
2023-05-14T17:06:43.310Z,63.20
2023-05-14T17:09:09.798Z,63.40
2023-05-14T17:11:36.320Z,63.30
2023-05-14T17:14:02.850Z,63.30
2023-05-14T17:16:29.351Z,63.30
2023-05-14T17:18:55.917Z,63.40
2023-05-14T17:21:22.455Z,63.50
2023-05-14T17:23:48.974Z,63.30
2023-05-14T17:26:15.476Z,63.30
2023-05-14T17:28:41.984Z,63.30
2023-05-14T17:31:08.552Z,63.30
2023-05-14T17:33:35.112Z,63.30
2023-05-14T17:36:05.518Z,63.30
2023-05-14T17:38:32.007Z,63.30
2023-05-14T17:40:58.494Z,63.30
2023-05-14T17:43:24.992Z,63.30
2023-05-14T17:45:54.296Z,63.30
2023-05-14T17:48:21.432Z,63.30
2023-05-14T17:50:47.944Z,63.30
2023-05-14T17:53:14.418Z,63.40
2023-05-14T17:55:40.922Z,63.30
2023-05-14T17:58:07.422Z,63.40
2023-05-14T18:00:33.971Z,63.40
2023-05-14T18:03:00.576Z,63.50
2023-05-14T18:05:27.163Z,63.50
2023-05-14T18:07:53.632Z,63.40
2023-05-14T18:10:20.124Z,63.50
2023-05-14T18:12:46.616Z,63.50
2023-05-14T18:15:13.103Z,63.50
2023-05-14T18:17:39.594Z,63.50
2023-05-14T18:20:06.093Z,63.60
2023-05-14T18:22:32.567Z,63.50
2023-05-14T18:24:59.052Z,63.50
2023-05-14T18:27:25.532Z,63.60
2023-05-14T18:29:52.018Z,63.60
2023-05-14T18:32:18.496Z,63.70
2023-05-14T18:34:44.992Z,63.60
2023-05-14T18:37:11.475Z,63.80
2023-05-14T18:39:37.970Z,63.80
2023-05-14T18:42:04.450Z,63.60
2023-05-14T18:44:30.922Z,63.70
2023-05-14T18:46:57.400Z,63.90
2023-05-14T18:49:23.890Z,63.70
2023-05-14T18:51:50.387Z,63.70
2023-05-14T18:54:16.866Z,63.80
2023-05-14T18:56:43.598Z,63.80
2023-05-14T18:59:11.023Z,63.80
2023-05-14T19:01:37.584Z,63.80
2023-05-14T19:04:05.422Z,63.90
2023-05-14T19:06:32.182Z,63.90
2023-05-14T19:08:58.665Z,63.90
2023-05-14T19:11:25.176Z,64.00
2023-05-14T19:13:51.661Z,64.00
2023-05-14T19:16:18.213Z,64.00
2023-05-14T19:18:44.748Z,64.00
2023-05-14T19:21:11.246Z,64.10
2023-05-14T19:23:37.710Z,64.10
2023-05-14T19:26:04.198Z,64.00
2023-05-14T19:28:30.686Z,64.20
2023-05-14T19:30:57.256Z,64.20
2023-05-14T19:33:23.824Z,64.20
2023-05-14T19:35:50.310Z,64.10
2023-05-14T19:38:16.789Z,64.30
2023-05-14T19:40:44.424Z,64.20
2023-05-14T19:43:11.699Z,64.10
2023-05-14T19:45:38.217Z,64.20
2023-05-14T19:48:04.738Z,64.20
2023-05-14T19:50:31.236Z,64.20
2023-05-14T19:52:57.753Z,64.40
2023-05-14T19:55:24.497Z,64.30
2023-05-14T19:57:51.193Z,64.30
2023-05-14T20:00:17.663Z,64.40
2023-05-14T20:02:44.215Z,64.30
2023-05-14T20:05:10.779Z,64.40
2023-05-14T20:07:39.579Z,64.40
2023-05-14T20:10:06.792Z,64.40
2023-05-14T20:12:33.294Z,64.40
2023-05-14T20:14:59.780Z,64.50
2023-05-14T20:17:26.319Z,64.40
2023-05-14T20:19:52.825Z,64.40
2023-05-14T20:22:19.304Z,64.50
2023-05-14T20:24:45.787Z,64.50
2023-05-14T20:27:12.265Z,64.50
2023-05-14T20:29:38.756Z,64.50
2023-05-14T20:32:05.235Z,64.50
2023-05-14T20:34:31.724Z,64.50
2023-05-14T20:36:58.203Z,64.50
2023-05-14T20:39:24.685Z,64.50
2023-05-14T20:41:51.169Z,64.50
2023-05-14T20:44:19.132Z,64.50
2023-05-14T20:46:47.048Z,64.60
2023-05-14T20:49:13.561Z,64.60
2023-05-14T20:51:40.045Z,64.60
2023-05-14T20:54:06.581Z,64.50
2023-05-14T20:56:33.051Z,64.60
2023-05-14T20:58:59.523Z,64.50
2023-05-14T21:01:26.016Z,64.60
2023-05-14T21:03:52.648Z,64.60
2023-05-14T21:06:19.313Z,64.60
2023-05-14T21:08:45.819Z,64.60
2023-05-14T21:11:12.311Z,64.70
2023-05-14T21:13:38.818Z,64.70
2023-05-14T21:16:05.367Z,64.70
2023-05-14T21:18:31.948Z,64.70
2023-05-14T21:20:58.449Z,64.70
2023-05-14T21:23:24.929Z,64.80
2023-05-14T21:25:51.449Z,64.80
2023-05-14T21:28:17.925Z,64.90
2023-05-14T21:30:44.408Z,64.80
2023-05-14T21:33:10.963Z,64.80
2023-05-14T21:35:37.511Z,64.90
2023-05-14T21:38:03.999Z,64.80
2023-05-14T21:40:30.503Z,64.80
2023-05-14T21:42:56.985Z,64.80
2023-05-14T21:45:23.834Z,64.80
2023-05-14T21:47:50.536Z,64.90
2023-05-14T21:50:17.126Z,64.90
2023-05-14T21:52:43.599Z,64.90
2023-05-14T21:55:10.090Z,64.90
2023-05-14T21:57:36.560Z,64.90
2023-05-14T22:00:03.074Z,64.90
2023-05-14T22:02:29.588Z,64.90
2023-05-14T22:04:56.101Z,65.60
2023-05-14T22:07:22.631Z,64.90
2023-05-14T22:09:50.170Z,64.90
2023-05-14T22:12:16.763Z,65.60
2023-05-14T22:14:43.254Z,64.90
2023-05-14T22:17:09.746Z,64.90
2023-05-14T22:19:36.227Z,64.90
2023-05-14T22:22:02.740Z,64.90
2023-05-14T22:24:29.203Z,64.90
2023-05-14T22:26:55.712Z,64.90
2023-05-14T22:29:22.196Z,64.90
2023-05-14T22:31:48.773Z,64.90
2023-05-14T22:34:15.373Z,64.90
2023-05-14T22:36:41.873Z,64.90
2023-05-14T22:39:08.365Z,64.90
2023-05-14T22:41:34.849Z,65.00
2023-05-14T22:44:01.312Z,64.80
2023-05-14T22:46:27.811Z,64.80
2023-05-14T22:48:54.322Z,64.90
2023-05-14T22:51:20.826Z,64.90
2023-05-14T22:53:47.297Z,64.90
2023-05-14T22:56:13.822Z,64.90
2023-05-14T22:58:40.305Z,64.90
2023-05-14T23:01:06.781Z,64.80
2023-05-14T23:03:33.253Z,64.80
2023-05-14T23:05:59.758Z,64.80
2023-05-14T23:08:26.237Z,64.90
2023-05-14T23:10:52.805Z,64.90
2023-05-14T23:13:19.368Z,64.90
2023-05-14T23:15:45.853Z,64.90
2023-05-14T23:18:12.444Z,64.70
2023-05-14T23:20:39.023Z,64.70
2023-05-14T23:23:05.535Z,64.70
2023-05-14T23:25:32.022Z,64.80
2023-05-14T23:27:58.531Z,64.70
2023-05-14T23:30:25.012Z,64.70
2023-05-14T23:32:51.540Z,64.90
2023-05-14T23:35:18.079Z,64.80
2023-05-14T23:37:44.589Z,64.70
2023-05-14T23:40:11.070Z,64.90
2023-05-14T23:42:37.573Z,64.70
2023-05-14T23:45:04.053Z,64.70
2023-05-14T23:47:30.573Z,64.70
2023-05-14T23:49:57.086Z,64.60
2023-05-14T23:52:23.555Z,64.70
2023-05-14T23:54:50.035Z,64.70
2023-05-14T23:57:16.499Z,64.80
2023-05-14T23:59:42.986Z,64.80
